Time;durP1;ratioP1;P1;durP2;ratioP2;P2;SDS_P1;SDS_P2;PMS_P1;PMS_P2;Temp;Humidity;BMP_temperature;BMP_pressure;BME280_temperature;BME280_humidity;BME280_pressure;Samples;Min_cycle;Max_cycle;Signal;HPM_P1;HPM_P2
2022/01/07 00:00:30;;;;;;;1.25;0.68;;;;;;;3.06;82.41;101398.94;4972391;28;125420;-42
2022/01/07 00:02:56;;;;;;;0.40;0.40;;;;;;;3.16;82.55;101413.88;4973132;28;97809;-42
2022/01/07 00:05:24;;;;;;;2.92;0.75;;;;;;;3.25;81.96;101420.81;4972296;28;96571;-42
2022/01/07 00:07:50;;;;;;;1.27;0.93;;;;;;;3.13;82.44;101396.09;4972176;28;96818;-42
2022/01/07 00:10:18;;;;;;;0.90;0.65;;;;;;;3.10;81.93;101379.19;4972784;28;97445;-42
2022/01/07 00:12:44;;;;;;;3.83;1.02;;;;;;;3.18;82.00;101391.50;4972509;28;100868;-42
2022/01/07 00:15:10;;;;;;;0.43;0.38;;;;;;;3.27;81.86;101397.59;4973661;28;96629;-42
2022/01/07 00:17:35;;;;;;;1.42;0.85;;;;;;;3.22;81.73;101380.72;4973701;28;96703;-42
2022/01/07 00:20:01;;;;;;;1.05;0.55;;;;;;;3.27;81.58;101390.44;4972909;28;97809;-42
2022/01/07 00:22:27;;;;;;;0.70;0.60;;;;;;;3.26;81.50;101385.97;4971916;28;100847;-43
2022/01/07 00:24:52;;;;;;;1.13;0.77;;;;;;;3.28;81.85;101391.31;4973530;28;96624;-43
2022/01/07 00:27:17;;;;;;;1.25;0.77;;;;;;;3.25;81.22;101378.00;4973530;28;96731;-42
2022/01/07 00:29:43;;;;;;;2.53;0.85;;;;;;;3.23;81.04;101369.97;4973197;28;97252;-43
2022/01/07 00:32:08;;;;;;;2.80;0.73;;;;;;;3.31;81.46;101380.50;4973220;28;97367;-43
2022/01/07 00:34:34;;;;;;;2.08;1.20;;;;;;;3.27;81.65;101373.50;4973471;28;96620;-42
2022/01/07 00:36:59;;;;;;;1.48;1.02;;;;;;;3.19;81.94;101349.53;4973530;28;101373;-42
2022/01/07 00:39:25;;;;;;;1.48;0.70;;;;;;;3.31;81.36;101376.06;4973283;28;97938;-43
2022/01/07 00:41:50;;;;;;;3.08;0.73;;;;;;;3.24;81.51;101347.63;4973481;28;97303;-42
2022/01/07 00:44:15;;;;;;;1.17;0.52;;;;;;;3.22;82.25;101337.88;4971121;28;106298;-42
2022/01/07 00:46:41;;;;;;;5.43;0.70;;;;;;;3.24;82.47;101339.59;4973576;28;96798;-42
2022/01/07 00:49:06;;;;;;;1.38;0.63;;;;;;;3.23;83.14;101340.53;4973105;28;97964;-42
2022/01/07 00:51:31;;;;;;;0.98;0.75;;;;;;;3.25;84.37;101356.56;4971949;28;122908;-43
2022/01/07 00:53:57;;;;;;;0.60;0.38;;;;;;;3.12;84.11;101327.41;4973132;28;96703;-42
2022/01/07 00:56:22;;;;;;;8.00;0.82;;;;;;;3.10;84.42;101339.97;4972979;28;96713;-43
2022/01/07 00:58:47;;;;;;;8.05;1.23;;;;;;;3.20;84.35;101343.28;4972887;28;97396;-43
2022/01/07 01:01:13;;;;;;;0.95;0.68;;;;;;;3.10;83.89;101329.25;4973152;28;97775;-43
2022/01/07 01:03:38;;;;;;;0.50;0.50;;;;;;;3.21;85.05;101341.50;4972698;28;96868;-43
2022/01/07 01:06:03;;;;;;;2.78;1.52;;;;;;;3.02;86.12;101311.59;4972806;28;96890;-42
2022/01/07 01:08:29;;;;;;;0.80;0.63;;;;;;;3.08;86.32;101322.16;4972157;28;99244;-43
2022/01/07 01:10:55;;;;;;;4.55;1.33;;;;;;;3.02;85.54;101323.16;4972749;28;97429;-43
2022/01/07 01:13:21;;;;;;;1.85;0.70;;;;;;;3.08;86.42;101322.16;4971229;28;96828;-42
2022/01/07 01:15:47;;;;;;;1.92;1.02;;;;;;;2.97;86.80;101317.91;4971363;28;96808;-43
2022/01/07 01:18:12;;;;;;;1.25;0.93;;;;;;;3.04;86.79;101336.53;4971078;28;99590;-43
2022/01/07 01:20:38;;;;;;;3.42;1.05;;;;;;;3.04;87.47;101323.16;4971421;28;120869;-43
2022/01/07 01:23:03;;;;;;;6.45;1.58;;;;;;;2.92;86.57;101308.25;4972719;28;96615;-43
2022/01/07 01:25:31;;;;;;;3.47;1.92;;;;;;;2.92;87.03;101293.06;4972659;28;97892;-43
2022/01/07 01:27:56;;;;;;;0.90;0.63;;;;;;;3.01;87.47;101324.09;4970888;28;101375;-43
2022/01/07 01:30:26;;;;;;;0.75;0.70;;;;;;;3.01;87.76;101304.50;4972378;28;97871;-43
2022/01/07 01:32:53;;;;;;;1.70;1.05;;;;;;;2.92;87.73;101286.84;4970561;28;98213;-43
2022/01/07 01:35:18;;;;;;;5.72;0.95;;;;;;;2.94;87.53;101291.25;4972375;28;96806;-43
2022/01/07 01:37:43;;;;;;;1.45;0.93;;;;;;;3.04;87.07;101297.25;4972293;28;98002;-43
2022/01/07 01:40:10;;;;;;;3.35;0.82;;;;;;;2.97;86.84;101284.94;4972026;28;99158;-42
2022/01/07 01:42:36;;;;;;;1.20;0.70;;;;;;;2.98;87.61;101274.22;4970883;28;96729;-42
2022/01/07 01:45:01;;;;;;;2.35;0.55;;;;;;;3.00;87.73;101275.97;4972257;28;96775;-42
2022/01/07 01:47:27;;;;;;;1.35;0.57;;;;;;;3.00;87.32;101275.97;4972231;28;97618;-43
2022/01/07 01:49:52;;;;;;;4.55;1.20;;;;;;;3.11;87.40;101285.50;4972633;28;97825;-42
2022/01/07 01:52:17;;;;;;;6.88;1.50;;;;;;;3.10;87.80;101272.13;4971997;28;96840;-42
2022/01/07 01:54:43;;;;;;;3.40;2.05;;;;;;;3.05;88.19;101266.03;4972234;28;96803;-42
2022/01/07 01:57:10;;;;;;;1.20;0.75;;;;;;;3.02;87.40;101242.91;4971297;28;97950;-42
2022/01/07 01:59:36;;;;;;;1.40;1.30;;;;;;;3.10;87.51;101264.09;4972159;28;97166;-42
2022/01/07 02:02:01;;;;;;;3.60;1.33;;;;;;;3.03;87.13;101251.78;4971617;28;96784;-42
2022/01/07 02:04:27;;;;;;;2.42;1.27;;;;;;;3.14;87.69;101265.81;4972358;28;97310;-43
2022/01/07 02:06:53;;;;;;;1.90;0.73;;;;;;;3.10;88.36;101264.09;4972060;28;98013;-42
2022/01/07 02:09:23;;;;;;;1.25;0.80;;;;;;;3.17;87.72;101261.28;4971776;28;99671;-42
2022/01/07 02:11:48;;;;;;;2.13;1.40;;;;;;;3.03;87.97;101239.31;4970685;28;96888;-42
2022/01/07 02:14:14;;;;;;;2.08;1.40;;;;;;;3.00;87.87;101220.63;4972084;28;112261;-42
2022/01/07 02:16:39;;;;;;;4.97;1.35;;;;;;;3.14;88.76;101249.75;4971786;28;99270;-42
2022/01/07 02:19:04;;;;;;;2.67;1.55;;;;;;;3.17;88.56;101252.34;4972126;28;97433;-42
2022/01/07 02:21:29;;;;;;;3.40;1.15;;;;;;;2.93;88.51;101221.69;4970042;28;99479;-42
2022/01/07 02:23:55;;;;;;;1.92;1.33;;;;;;;3.14;88.64;101250.63;4972000;28;96862;-42
2022/01/07 02:26:20;;;;;;;1.80;1.35;;;;;;;3.04;88.92;101233.03;4970869;28;115667;-42
2022/01/07 02:28:49;;;;;;;3.70;1.88;;;;;;;2.95;88.08;101209.16;4971058;28;118101;-42
2022/01/07 02:31:14;;;;;;;1.92;1.30;;;;;;;3.05;88.42;101225.88;4971809;28;96645;-42
2022/01/07 02:33:39;;;;;;;2.28;1.52;;;;;;;3.14;88.95;101231.88;4974933;28;96747;-43
2022/01/07 02:36:06;;;;;;;5.10;2.38;;;;;;;3.18;88.01;101246.97;4974168;28;125543;-42
2022/01/07 02:38:32;;;;;;;7.95;1.25;;;;;;;3.19;88.91;101232.69;4974000;28;101177;-42
2022/01/07 02:41:00;;;;;;;4.18;1.75;;;;;;;3.08;89.24;101209.78;4974327;28;121949;-43
2022/01/07 02:43:25;;;;;;;1.90;1.52;;;;;;;3.18;89.23;101230.03;4974918;28;96754;-42
2022/01/07 02:45:51;;;;;;;2.80;1.80;;;;;;;3.17;88.83;101229.16;4973702;28;115431;-42
2022/01/07 02:48:16;;;;;;;2.90;1.13;;;;;;;3.13;89.51;101213.22;4973941;28;126761;-42
2022/01/07 02:50:41;;;;;;;2.28;1.52;;;;;;;3.02;89.80;101191.19;4973885;28;122831;-42
2022/01/07 02:53:09;;;;;;;1.63;1.00;;;;;;;3.22;89.12;101214.75;4975142;28;96761;-42
2022/01/07 02:55:36;;;;;;;1.77;1.23;;;;;;;3.22;89.82;101206.72;4973286;28;98871;-42
2022/01/07 02:58:02;;;;;;;1.23;1.05;;;;;;;3.16;89.89;101183.69;4973375;28;100586;-42
2022/01/07 03:00:27;;;;;;;2.30;1.50;;;;;;;3.25;89.29;101202.19;4975072;28;96492;-42
2022/01/07 03:02:54;;;;;;;2.65;1.88;;;;;;;3.13;89.15;101181.09;4973351;28;96831;-42
2022/01/07 03:05:20;;;;;;;1.65;1.17;;;;;;;3.20;89.73;101198.75;4973125;28;103386;-42
2022/01/07 03:07:49;;;;;;;1.50;1.00;;;;;;;3.14;90.51;101174.81;4973160;28;100781;-42
2022/01/07 03:10:18;;;;;;;2.95;2.28;;;;;;;3.21;89.39;101184.44;4972697;28;97468;-42
2022/01/07 03:12:44;;;;;;;1.75;1.50;;;;;;;3.07;89.85;101158.03;4973202;28;96802;-42
2022/01/07 03:15:11;;;;;;;1.13;0.82;;;;;;;3.31;89.80;101194.00;4974461;28;97838;-42
2022/01/07 03:17:40;;;;;;;3.03;2.25;;;;;;;3.34;89.26;101182.34;4972946;28;100706;-42
2022/01/07 03:20:07;;;;;;;2.92;1.85;;;;;;;3.23;89.71;101177.25;4972981;28;96610;-42
2022/01/07 03:22:33;;;;;;;1.42;1.17;;;;;;;3.35;89.86;101194.78;4972843;28;96927;-42
2022/01/07 03:24:58;;;;;;;1.50;1.02;;;;;;;3.26;89.70;101161.09;4974401;28;97886;-42
2022/01/07 03:27:23;;;;;;;3.88;1.95;;;;;;;3.28;89.48;101161.06;4973638;28;127156;-42
2022/01/07 03:29:49;;;;;;;3.35;2.22;;;;;;;3.37;89.24;101188.47;4973745;28;111677;-42
2022/01/07 03:32:14;;;;;;;3.40;2.40;;;;;;;3.38;89.59;101187.56;4974262;28;100823;-43
2022/01/07 03:34:39;;;;;;;7.28;1.95;;;;;;;3.26;89.85;101158.44;4973413;28;99369;-42
2022/01/07 03:37:05;;;;;;;2.88;1.95;;;;;;;3.35;89.97;101174.25;4973691;28;99176;-43
2022/01/07 03:39:30;;;;;;;2.75;1.27;;;;;;;3.21;90.30;101156.81;4974362;28;96475;-42
2022/01/07 03:41:55;;;;;;;1.92;1.05;;;;;;;3.38;90.91;101179.53;4974160;28;96767;-42
2022/01/07 03:44:21;;;;;;;3.50;2.42;;;;;;;3.39;90.04;101181.28;4973636;28;105901;-42
2022/01/07 03:46:46;;;;;;;3.03;1.52;;;;;;;3.40;89.81;101171.44;4973785;28;97803;-42
2022/01/07 03:49:11;;;;;;;6.18;2.13;;;;;;;3.40;89.76;101166.09;4973731;28;100881;-42
2022/01/07 03:51:37;;;;;;;1.83;1.52;;;;;;;3.30;89.72;101143.19;4973111;28;113484;-42
2022/01/07 03:54:02;;;;;;;2.72;2.00;;;;;;;3.29;90.37;101142.31;4973993;28;97847;-42
2022/01/07 03:56:27;;;;;;;3.80;1.85;;;;;;;3.41;90.13;101146.44;4973809;28;97321;-42
2022/01/07 03:58:53;;;;;;;1.90;1.73;;;;;;;3.32;90.26;101117.25;4973053;28;115365;-42
2022/01/07 04:01:18;;;;;;;2.75;1.58;;;;;;;3.36;90.62;101119.81;4973237;28;113248;-42
2022/01/07 04:03:43;;;;;;;3.58;2.00;;;;;;;3.41;90.82;101122.34;4972986;28;110063;-42
2022/01/07 04:06:09;;;;;;;2.90;1.58;;;;;;;3.46;90.51;101140.97;4973530;28;97814;-42
2022/01/07 04:08:34;;;;;;;1.83;1.20;;;;;;;3.49;90.46;101135.53;4972313;28;96555;-42
2022/01/07 04:10:59;;;;;;;3.97;2.55;;;;;;;3.50;90.38;101126.56;4973901;28;96474;-42
2022/01/07 04:13:24;;;;;;;1.67;1.45;;;;;;;3.39;90.34;101100.97;4971686;28;112911;-42
2022/01/07 04:15:50;;;;;;;4.05;2.55;;;;;;;3.38;89.72;101088.50;4972893;28;126322;-42
2022/01/07 04:18:27;;;;;;;3.50;2.33;;;;;;;3.43;90.67;101100.88;4973254;28;105205;-42
2022/01/07 04:20:52;;;;;;;3.53;1.55;;;;;;;3.58;90.73;101116.53;4973591;28;100833;-42
2022/01/07 04:23:18;;;;;;;4.63;1.52;;;;;;;3.47;90.73;101106.09;4972975;28;97426;-42
2022/01/07 04:25:43;;;;;;;1.63;1.15;;;;;;;3.53;91.72;101108.63;4973278;28;97310;-43
2022/01/07 04:28:09;;;;;;;5.05;2.35;;;;;;;3.61;90.56;101111.94;4972973;28;100818;-42
2022/01/07 04:30:37;;;;;;;3.88;2.33;;;;;;;3.63;90.62;101111.03;4973605;28;96715;-42
2022/01/07 04:33:04;;;;;;;2.30;1.75;;;;;;;3.66;90.67;101119.84;4971768;28;100950;-42
2022/01/07 04:35:31;;;;;;;1.70;1.10;;;;;;;3.65;90.31;101110.06;4973293;28;97370;-42
2022/01/07 04:37:57;;;;;;;2.63;2.08;;;;;;;3.61;90.68;101113.75;4973387;28;96560;-43
2022/01/07 04:40:23;;;;;;;1.75;1.52;;;;;;;3.56;91.19;101099.63;4973730;28;96765;-42
2022/01/07 04:42:48;;;;;;;4.32;2.60;;;;;;;3.68;90.31;101123.38;4973175;28;97918;-42
2022/01/07 04:45:14;;;;;;;4.25;2.47;;;;;;;3.65;90.96;101114.53;4972673;28;105701;-42
2022/01/07 04:47:41;;;;;;;3.22;2.75;;;;;;;3.67;90.19;101110.91;4972778;28;96646;-42
2022/01/07 04:50:14;;;;;;;3.03;1.42;;;;;;;3.56;91.49;101080.88;4972836;28;96747;-42
2022/01/07 04:52:43;;;;;;;2.22;1.88;;;;;;;3.64;90.99;101077.97;4971082;28;101418;-42
2022/01/07 04:55:10;;;;;;;4.28;1.73;;;;;;;3.67;90.42;101078.75;4970923;28;100809;-42
2022/01/07 04:57:36;;;;;;;6.30;2.20;;;;;;;3.69;90.30;101076.03;4971331;28;96858;-42
2022/01/07 05:00:04;;;;;;;2.42;1.40;;;;;;;3.75;90.79;101082.06;4972738;28;96603;-42
2022/01/07 05:02:29;;;;;;;9.55;2.17;;;;;;;3.78;90.96;101084.66;4970767;28;103589;-42
2022/01/07 05:04:54;;;;;;;3.13;2.05;;;;;;;3.73;90.89;101072.34;4972857;28;99692;-42
2022/01/07 05:07:20;;;;;;;4.07;1.75;;;;;;;3.81;90.80;101081.00;4971690;28;96668;-42
2022/01/07 05:09:45;;;;;;;3.63;1.92;;;;;;;3.82;90.96;101072.06;4972417;28;110936;-42
2022/01/07 05:12:11;;;;;;;2.75;1.65;;;;;;;3.68;91.03;101060.88;4971629;28;126496;-42
2022/01/07 05:14:36;;;;;;;4.65;2.30;;;;;;;3.89;90.08;101100.44;4971140;28;101444;-42
2022/01/07 05:17:01;;;;;;;2.22;1.48;;;;;;;3.76;90.41;101077.59;4971793;28;112583;-42
2022/01/07 05:19:26;;;;;;;2.80;1.83;;;;;;;3.89;90.73;101100.44;4972717;28;96868;-42
2022/01/07 05:21:52;;;;;;;3.22;1.33;;;;;;;3.76;90.83;101067.75;4972147;28;112036;-42
2022/01/07 05:24:17;;;;;;;4.38;2.13;;;;;;;3.88;90.83;101081.72;4971575;28;125785;-42
2022/01/07 05:26:42;;;;;;;4.30;2.03;;;;;;;3.74;90.16;101069.63;4971741;28;121889;-42
2022/01/07 05:29:08;;;;;;;2.55;1.67;;;;;;;3.89;90.25;101088.84;4973130;28;96818;-42
2022/01/07 05:31:33;;;;;;;1.63;1.42;;;;;;;3.83;91.14;101093.44;4972376;28;99219;-42
2022/01/07 05:34:04;;;;;;;4.38;2.63;;;;;;;3.88;90.89;101104.00;4972014;28;109195;-42
2022/01/07 05:36:29;;;;;;;1.70;1.13;;;;;;;3.89;90.97;101105.78;4972195;28;96505;-42
2022/01/07 05:38:55;;;;;;;3.25;2.08;;;;;;;3.96;90.82;101126.13;4972556;28;96713;-42
2022/01/07 05:41:23;;;;;;;2.17;1.35;;;;;;;3.85;90.93;101093.41;4971857;28;114791;-42
2022/01/07 05:43:49;;;;;;;5.30;2.28;;;;;;;3.83;90.88;101090.75;4971100;28;126666;-42
2022/01/07 05:46:15;;;;;;;2.55;2.00;;;;;;;3.97;91.11;101102.88;4972288;28;96483;-42
2022/01/07 05:48:45;;;;;;;1.73;1.45;;;;;;;3.95;91.23;101107.41;4970925;28;96844;-42
2022/01/07 05:51:10;;;;;;;2.85;1.88;;;;;;;3.93;90.99;101109.25;4972008;28;97344;-42
2022/01/07 05:53:36;;;;;;;2.38;1.77;;;;;;;3.80;91.20;101088.19;4972622;28;97754;-42
2022/01/07 05:56:01;;;;;;;3.58;1.70;;;;;;;3.83;91.47;101090.75;4972102;28;96623;-42
2022/01/07 05:58:26;;;;;;;2.42;1.67;;;;;;;3.81;90.63;101079.22;4972197;28;96816;-42
2022/01/07 06:00:52;;;;;;;1.48;1.38;;;;;;;3.83;90.95;101079.16;4971488;28;97687;-42
2022/01/07 06:03:17;;;;;;;2.92;1.75;;;;;;;3.82;90.91;101085.47;4971904;28;97284;-42
2022/01/07 06:05:42;;;;;;;2.75;1.88;;;;;;;3.82;90.77;101078.28;4972475;28;96620;-42
2022/01/07 06:08:09;;;;;;;1.73;1.52;;;;;;;3.84;91.70;101075.59;4974235;28;96705;-42
2022/01/07 06:10:34;;;;;;;4.10;2.75;;;;;;;3.99;91.41;101106.38;4973988;28;101295;-42
2022/01/07 06:13:00;;;;;;;2.22;1.48;;;;;;;3.95;91.23;101092.19;4975624;28;97838;-42
2022/01/07 06:15:25;;;;;;;1.95;1.55;;;;;;;3.92;91.01;101088.75;4974645;28;113320;-42
2022/01/07 06:17:50;;;;;;;3.47;2.28;;;;;;;4.02;90.42;101109.84;4975970;28;96520;-42
2022/01/07 06:20:18;;;;;;;2.67;2.15;;;;;;;3.91;91.07;101092.31;4974326;28;97886;-42
2022/01/07 06:22:43;;;;;;;8.02;3.20;;;;;;;4.03;90.51;101100.03;4975153;28;99647;-42
2022/01/07 06:25:09;;;;;;;5.50;3.05;;;;;;;3.90;90.81;101079.88;4974955;28;96563;-42
2022/01/07 06:27:34;;;;;;;5.32;2.05;;;;;;;3.95;90.81;101094.00;4975378;28;96704;-42
2022/01/07 06:30:00;;;;;;;1.50;1.30;;;;;;;4.07;90.85;101103.47;4973525;28;101417;-42
2022/01/07 06:32:26;;;;;;;1.75;1.50;;;;;;;4.03;90.96;101102.69;4975171;28;97344;-42
2022/01/07 06:34:52;;;;;;;5.32;2.10;;;;;;;4.11;91.33;101110.50;4975216;28;96477;-42
2022/01/07 06:37:17;;;;;;;1.30;1.10;;;;;;;4.10;90.80;101103.38;4973844;28;96817;-41
2022/01/07 06:39:43;;;;;;;3.15;2.38;;;;;;;4.13;91.05;101105.97;4975080;28;98159;-42
2022/01/07 06:42:09;;;;;;;3.90;2.13;;;;;;;4.03;91.00;101083.94;4974876;28;113071;-42
2022/01/07 06:44:34;;;;;;;4.75;1.65;;;;;;;4.00;90.96;101073.28;4973563;28;98227;-42
2022/01/07 06:46:59;;;;;;;4.38;2.38;;;;;;;4.12;91.00;101099.72;4975068;28;96782;-42
2022/01/07 06:49:25;;;;;;;4.38;2.03;;;;;;;3.99;91.25;101076.91;4974553;28;97808;-42
2022/01/07 06:51:51;;;;;;;6.93;1.55;;;;;;;4.04;91.25;101091.03;4974731;28;97846;-42
2022/01/07 06:54:17;;;;;;;8.43;2.10;;;;;;;4.15;91.56;101112.19;4974799;28;96454;-42
2022/01/07 06:56:43;;;;;;;2.25;1.63;;;;;;;4.06;91.09;101091.00;4973266;28;96778;-42
2022/01/07 06:59:12;;;;;;;2.42;1.65;;;;;;;4.16;90.75;101108.56;4974106;28;97517;-42
2022/01/07 07:01:38;;;;;;;2.80;1.88;;;;;;;4.18;90.68;101107.56;4974384;28;99101;-42
2022/01/07 22:32:53;;;;;;;1.55;1.15;;;;;;;1.08;88.02;101088.50;4965263;28;124924;-42
2022/01/07 22:35:22;;;;;;;1.30;0.60;;;;;;;1.07;87.83;101100.06;4971554;28;99365;-42
2022/01/07 22:37:49;;;;;;;2.47;0.90;;;;;;;1.01;87.72;101086.88;4970440;28;97631;-42
2022/01/07 22:40:15;;;;;;;0.30;0.30;;;;;;;1.10;88.39;101105.38;4970626;28;96778;-42
2022/01/07 22:42:41;;;;;;;0.15;0.15;;;;;;;1.21;88.15;101124.72;4970422;28;99613;-42
2022/01/07 22:45:07;;;;;;;0.80;0.55;;;;;;;1.26;88.10;101125.53;4953972;28;100969;-42
2022/01/07 22:47:32;;;;;;;0.52;0.52;;;;;;;1.12;88.49;101114.22;4971711;28;96613;-42
2022/01/07 22:49:57;;;;;;;4.53;1.05;;;;;;;1.12;88.32;101111.56;4974085;28;96695;-42
2022/01/07 22:52:23;;;;;;;1.13;0.82;;;;;;;1.14;88.46;101104.38;4974741;28;99404;-42
2022/01/07 22:54:48;;;;;;;1.20;0.50;;;;;;;1.31;88.26;101119.19;4974972;28;97463;-42
2022/01/07 22:57:13;;;;;;;4.25;0.47;;;;;;;1.27;87.97;101095.25;4974427;28;96788;-42
2022/01/07 22:59:51;;;;;;;0.47;0.43;;;;;;;1.41;88.22;101112.81;4975164;28;96854;-42
2022/01/07 23:02:16;;;;;;;0.22;0.20;;;;;;;1.45;88.27;101120.72;4974849;28;97568;-42
2022/01/07 23:04:41;;;;;;;2.72;0.05;;;;;;;1.51;88.33;101118.84;4975042;28;100570;-42
2022/01/07 23:07:07;;;;;;;0.28;0.28;;;;;;;1.50;88.17;101120.59;4974915;28;96642;-42
2022/01/07 23:09:32;;;;;;;1.10;0.38;;;;;;;1.39;88.11;101098.59;4974990;28;96771;-42
2022/01/07 23:11:58;;;;;;;0.60;0.28;;;;;;;1.42;87.96;101103.88;4974319;28;99193;-42
2022/01/07 23:14:23;;;;;;;1.95;0.68;;;;;;;1.51;88.14;101129.50;4974929;28;97923;-42
2022/01/07 23:16:49;;;;;;;0.65;0.25;;;;;;;1.49;87.91;101121.53;4974572;28;96493;-42
2022/01/07 23:19:16;;;;;;;5.38;0.55;;;;;;;1.31;87.78;101089.84;4974709;28;96686;-42
2022/01/07 23:21:42;;;;;;;0.55;0.55;;;;;;;1.50;87.73;101128.59;4974184;28;97959;-42
2022/01/07 23:24:07;;;;;;;0.38;0.38;;;;;;;1.46;88.01;101126.94;4974506;28;97968;-42
2022/01/07 23:26:34;;;;;;;0.30;0.30;;;;;;;1.31;87.47;101111.19;4974518;28;96580;-42
2022/01/07 23:29:00;;;;;;;0.52;0.40;;;;;;;1.40;87.77;101138.59;4974940;28;96743;-42
2022/01/07 23:31:25;;;;;;;0.55;0.43;;;;;;;1.44;87.97;101139.44;4973717;28;99211;-42
2022/01/07 23:33:58;;;;;;;5.30;1.58;;;;;;;1.40;87.91;101146.59;4974482;28;97808;-42
2022/01/07 23:36:26;;;;;;;1.40;1.05;;;;;;;1.37;88.32;101144.00;4974715;28;96798;-42
2022/01/07 23:38:52;;;;;;;1.90;1.38;;;;;;;1.25;87.86;101134.44;4974660;28;96727;-42
2022/01/07 23:41:17;;;;;;;8.35;1.45;;;;;;;1.33;87.89;101152.94;4973208;28;118428;-42
2022/01/07 23:43:42;;;;;;;2.03;0.70;;;;;;;1.23;87.74;101146.91;4973257;28;127170;-42
2022/01/07 23:46:07;;;;;;;1.40;0.70;;;;;;;1.28;88.10;101162.84;4973603;28;100022;-42
2022/01/07 23:48:33;;;;;;;0.98;0.70;;;;;;;1.26;88.01;101161.97;4973539;28;114476;-42
2022/01/07 23:50:58;;;;;;;2.15;1.08;;;;;;;1.05;88.29;101132.13;4973617;28;99201;-42
2022/01/07 23:53:23;;;;;;;0.65;0.65;;;;;;;1.16;88.25;101158.59;4973489;28;115834;-42
2022/01/07 23:55:48;;;;;;;0.20;0.20;;;;;;;1.14;88.14;101157.75;4972962;28;120203;-42
2022/01/07 23:58:14;;;;;;;0.95;0.60;;;;;;;1.14;88.02;101168.41;4973060;28;121951;-42
